Maldives Meteorological Service

TAFS

Station TAF
VRMM
VRMM 252300Z 2600/2706 25015KT 9000 FEW017TCU BKN110 TEMPO 2600/2606 27018G35KT 3000 SHRA/RA SCT015 FEW016CB OVC100=
VRMH
VRMH 252300Z 2600/2624 27008KT 9999 FEW017TCU TEMPO 2600/2606 3000 TSRA SCT015 FEW017CB BKN100=
VRMK
VRMK 252300Z 2600/2624 22009KT 9000 SCT017TCU OVC100 TEMPO 2600/2606 2000 SHRA/-RA SCT016CB OVC090=
VRMT
VRMT 252300Z 2600/2624 20008KT 9999 SCT017TCU BKN100 TEMPO 2600/2606 4000 TSRA SCT016CB OVC090=
VRMG
VRMG 252300Z 2600/2706 21010KT 9999 FEW018 TEMPO 2601/2607 4000 SHRA FEW017CB BKN120=